Time;durP1;ratioP1;P1;durP2;ratioP2;P2;SDS_P1;SDS_P2;PMS_P1;PMS_P2;Temp;Humidity;BMP_temperature;BMP_pressure;BME280_temperature;BME280_humidity;BME280_pressure;Samples;Min_cycle;Max_cycle;Signal;HPM_P1;HPM_P2
2024/04/19 00:01:27;;;;;;;6.93;3.33;;;;;;;3.02;100.00;97494.28;5352149;26;20032;-59
2024/04/19 00:03:53;;;;;;;6.70;3.28;;;;;;;3.01;100.00;97491.78;5344946;26;20016;-59
2024/04/19 00:06:21;;;;;;;7.25;3.80;;;;;;;3.02;100.00;97494.28;5329914;26;20074;-59
2024/04/19 00:08:47;;;;;;;7.13;4.18;;;;;;;3.06;100.00;97487.50;5338621;26;20024;-60
2024/04/19 00:11:14;;;;;;;6.18;3.50;;;;;;;3.06;100.00;97471.44;5332095;26;20008;-59
2024/04/19 00:13:41;;;;;;;6.03;3.28;;;;;;;2.99;100.00;97467.94;5328577;26;20015;-59
2024/04/19 00:16:08;;;;;;;5.53;3.30;;;;;;;2.95;100.00;97478.19;5340788;26;20000;-60
2024/04/19 00:18:35;;;;;;;6.22;3.40;;;;;;;2.95;100.00;97466.69;5335169;26;20056;-60
2024/04/19 00:21:02;;;;;;;6.43;3.97;;;;;;;2.92;100.00;97470.59;5337587;26;20008;-60
2024/04/19 00:23:29;;;;;;;6.53;3.55;;;;;;;2.92;100.00;97467.09;5319006;26;20012;-60
2024/04/19 00:25:55;;;;;;;6.18;3.38;;;;;;;2.85;100.00;97465.19;5332831;26;20001;-60
2024/04/19 00:28:34;;;;;;;5.93;3.28;;;;;;;2.87;100.00;97465.00;5321651;26;20075;-60
2024/04/19 00:31:01;;;;;;;6.03;3.83;;;;;;;2.88;100.00;97468.50;5338484;26;20031;-60
2024/04/19 00:33:28;;;;;;;7.18;4.13;;;;;;;2.85;100.00;97459.03;5321781;26;20012;-60
2024/04/19 00:35:55;;;;;;;8.23;3.63;;;;;;;2.83;100.00;97456.56;5343252;26;20044;-60
2024/04/19 00:38:21;;;;;;;6.82;3.67;;;;;;;2.81;100.00;97447.09;5337135;26;20012;-60
2024/04/19 00:40:48;;;;;;;8.75;3.88;;;;;;;2.82;100.00;97452.25;5329594;26;19997;-60
2024/04/19 00:43:15;;;;;;;7.18;3.80;;;;;;;2.79;100.00;97451.78;5330037;26;20762;-60
2024/04/19 00:45:41;;;;;;;8.38;4.18;;;;;;;2.74;100.00;97455.09;5325328;26;20074;-60
2024/04/19 00:48:22;;;;;;;6.72;4.10;;;;;;;2.86;100.00;97453.50;5335338;26;20489;-60
2024/04/19 00:51:00;;;;;;;6.47;4.00;;;;;;;2.92;100.00;97459.06;5339733;26;20049;-58
2024/04/19 00:53:30;;;;;;;7.18;3.85;;;;;;;2.92;100.00;97457.22;5341506;26;20012;-60
2024/04/19 00:56:17;;;;;;;7.65;4.63;;;;;;;3.03;100.00;97461.16;5325338;26;20019;-60
2024/04/19 00:58:44;;;;;;;7.55;4.28;;;;;;;3.01;100.00;97457.00;5326089;26;20027;-57
2024/04/19 01:01:12;;;;;;;6.60;4.63;;;;;;;3.01;100.00;97462.38;5331192;26;20466;-60
2024/04/19 01:03:39;;;;;;;6.70;4.30;;;;;;;2.99;100.00;97459.91;5331054;26;20065;-58
2024/04/19 01:06:06;;;;;;;7.78;4.57;;;;;;;2.98;100.00;97451.06;5332357;26;20040;-59
2024/04/19 01:08:33;;;;;;;7.93;4.40;;;;;;;3.02;100.00;97456.00;5337890;26;20075;-60
2024/04/19 01:10:59;;;;;;;7.57;4.53;;;;;;;2.93;100.00;97445.50;5341003;26;20013;-60
2024/04/19 01:13:26;;;;;;;7.22;4.22;;;;;;;2.91;100.00;97441.38;5330323;26;20009;-59
2024/04/19 01:15:53;;;;;;;7.80;4.57;;;;;;;2.71;100.00;97440.28;5328961;26;20009;-60
2024/04/19 01:18:19;;;;;;;8.05;4.75;;;;;;;2.61;100.00;97445.16;5299844;26;20050;-59
2024/04/19 01:20:47;;;;;;;8.13;4.60;;;;;;;2.47;100.00;97433.59;5334014;26;20082;-59
2024/04/19 01:23:17;;;;;;;11.15;4.47;;;;;;;2.43;100.00;97432.34;5338673;26;20001;-58
2024/04/19 01:25:44;;;;;;;8.48;4.53;;;;;;;2.39;100.00;97431.88;5312312;26;20009;-59
2024/04/19 01:28:12;;;;;;;8.25;4.65;;;;;;;2.39;100.00;97428.41;5327527;26;19997;-58
2024/04/19 01:30:42;;;;;;;8.85;5.15;;;;;;;2.32;100.00;97426.50;5335421;26;20033;-59
2024/04/19 01:33:10;;;;;;;8.73;4.90;;;;;;;2.40;100.00;97424.69;5327711;26;20086;-59
2024/04/19 01:35:37;;;;;;;7.65;4.28;;;;;;;2.38;100.00;97430.25;5333864;26;20390;-60
2024/04/19 01:38:04;;;;;;;7.55;4.85;;;;;;;2.34;100.00;97424.47;5341712;26;20045;-58
2024/04/19 01:40:31;;;;;;;7.75;4.28;;;;;;;2.35;100.00;97422.63;5332947;26;20269;-60
2024/04/19 01:42:57;;;;;;;9.40;5.15;;;;;;;2.39;100.00;97415.84;5324491;26;20021;-60
2024/04/19 01:45:24;;;;;;;8.68;4.53;;;;;;;2.39;100.00;97417.72;5324431;26;20041;-60
2024/04/19 01:47:51;;;;;;;10.30;4.78;;;;;;;2.42;100.00;97420.81;5328887;26;20491;-60
2024/04/19 01:50:18;;;;;;;8.43;4.32;;;;;;;2.44;100.00;97418.75;5347350;26;20486;-60
2024/04/19 01:52:46;;;;;;;7.50;4.50;;;;;;;2.41;100.00;97415.66;5343922;26;20009;-60
2024/04/19 01:55:14;;;;;;;7.82;5.25;;;;;;;2.44;100.00;97418.75;5340356;26;20469;-60
2024/04/19 01:57:41;;;;;;;7.38;4.85;;;;;;;2.48;100.00;97413.84;5342112;26;20173;-60
2024/04/19 02:00:08;;;;;;;8.88;5.13;;;;;;;2.56;100.00;97410.16;5334927;26;20008;-60
2024/04/19 02:02:38;;;;;;;7.82;4.93;;;;;;;2.67;100.00;97412.28;5333511;26;20036;-60
2024/04/19 02:05:05;;;;;;;9.02;4.25;;;;;;;2.69;100.00;97407.53;5342933;26;20033;-60
2024/04/19 02:07:31;;;;;;;7.30;4.90;;;;;;;2.77;100.00;97408.41;5321570;26;20008;-60
2024/04/19 02:09:58;;;;;;;7.15;4.00;;;;;;;2.79;100.00;97407.16;5333085;26;20532;-60
2024/04/19 02:12:25;;;;;;;9.40;4.30;;;;;;;2.82;100.00;97404.09;5333240;26;20491;-60
2024/04/19 02:14:51;;;;;;;8.48;4.35;;;;;;;2.90;100.00;97402.25;5331046;26;20009;-60
2024/04/19 02:17:18;;;;;;;7.20;4.10;;;;;;;2.97;100.00;97408.44;5330607;26;20012;-60
2024/04/19 02:19:45;;;;;;;7.40;3.40;;;;;;;3.12;100.00;97398.41;5336581;26;20082;-60
2024/04/19 02:22:11;;;;;;;10.77;4.35;;;;;;;3.04;100.00;97400.44;5331538;26;20001;-59
2024/04/19 02:24:38;;;;;;;8.15;4.07;;;;;;;3.12;100.00;97393.06;5337687;26;20005;-59
2024/04/19 02:27:17;;;;;;;6.82;3.95;;;;;;;3.21;100.00;97388.31;5327191;26;20012;-58
2024/04/19 02:32:29;;;;;;;6.00;3.40;;;;;;;3.35;100.00;97380.31;5322025;26;20015;-60
2024/04/19 02:34:56;;;;;;;7.22;3.85;;;;;;;3.40;100.00;97375.19;5331737;26;20005;-60
2024/04/19 02:37:22;;;;;;;6.95;3.67;;;;;;;3.43;100.00;97372.06;5335815;26;20015;-60
2024/04/19 02:39:49;;;;;;;7.25;3.67;;;;;;;3.30;100.00;97370.22;5334094;26;20053;-60
2024/04/19 02:42:17;;;;;;;9.15;4.20;;;;;;;3.27;100.00;97365.28;5342674;26;20004;-60
2024/04/19 02:44:49;;;;;;;8.02;4.05;;;;;;;3.20;100.00;97357.25;5330597;26;20278;-58
2024/04/19 02:47:16;;;;;;;9.32;4.40;;;;;;;3.24;100.00;97360.31;5323844;26;20005;-58
2024/04/19 02:49:42;;;;;;;8.90;4.35;;;;;;;3.25;100.00;97357.44;5335013;26;20078;-56
2024/04/19 02:52:09;;;;;;;8.77;4.28;;;;;;;3.37;100.00;97355.00;5327984;26;20072;-58
2024/04/19 02:54:36;;;;;;;5.75;3.50;;;;;;;3.37;100.00;97338.09;5337720;26;19997;-57
2024/04/19 02:57:03;;;;;;;7.78;4.38;;;;;;;3.32;100.00;97348.63;5340720;26;22679;-58
2024/04/19 02:59:29;;;;;;;8.02;4.25;;;;;;;3.35;100.00;97335.63;5333364;26;20663;-59
2024/04/19 03:01:56;;;;;;;7.82;3.63;;;;;;;3.48;100.00;97339.34;5330531;26;20011;-58
2024/04/19 03:04:32;;;;;;;7.55;4.15;;;;;;;3.48;100.00;97337.50;5324944;26;20016;-59
2024/04/19 03:06:58;;;;;;;7.90;4.40;;;;;;;3.57;100.00;97326.56;5325698;26;20037;-59
2024/04/19 03:09:25;;;;;;;9.55;3.72;;;;;;;3.65;100.00;97331.72;5337700;26;20008;-58
2024/04/19 03:11:52;;;;;;;7.13;3.95;;;;;;;3.66;100.00;97330.69;5332459;26;20116;-59
2024/04/19 03:14:22;;;;;;;7.05;4.07;;;;;;;3.71;100.00;97324.69;5340519;26;20005;-59
2024/04/19 03:16:51;;;;;;;7.47;3.85;;;;;;;3.61;100.00;97320.59;5336704;26;20009;-59
2024/04/19 03:19:38;;;;;;;6.90;3.42;;;;;;;3.51;100.00;97325.53;5336994;26;20000;-58
2024/04/19 03:22:04;;;;;;;7.60;3.88;;;;;;;3.52;100.00;97321.84;5337135;26;20488;-59
2024/04/19 03:24:31;;;;;;;7.55;4.03;;;;;;;3.67;100.00;97323.44;5332617;26;20102;-59
2024/04/19 03:26:58;;;;;;;9.35;4.78;;;;;;;3.79;100.00;97316.44;5338005;26;20419;-59
2024/04/19 03:29:24;;;;;;;9.20;4.68;;;;;;;3.72;100.00;97308.41;5338971;26;20001;-58
2024/04/19 03:31:51;;;;;;;8.43;4.47;;;;;;;3.66;100.00;97300.38;5340193;26;20001;-59
2024/04/19 03:34:19;;;;;;;8.25;4.78;;;;;;;3.70;100.00;97288.22;5332053;26;20013;-58
2024/04/19 03:36:48;;;;;;;7.55;4.50;;;;;;;3.73;100.00;97291.31;5328824;26;20008;-59
2024/04/19 03:39:15;;;;;;;8.90;4.65;;;;;;;3.75;100.00;97291.94;5333616;26;20480;-59
2024/04/19 03:41:43;;;;;;;9.75;4.32;;;;;;;3.71;100.00;97288.03;5338269;26;20000;-57
2024/04/19 03:46:55;;;;;;;7.70;3.92;;;;;;;3.71;100.00;97281.84;5330452;26;20079;-59
2024/04/19 03:49:21;;;;;;;8.30;4.15;;;;;;;3.63;100.00;97275.69;5319486;26;20015;-59
2024/04/19 03:51:49;;;;;;;8.52;4.45;;;;;;;3.70;100.00;97278.34;5331015;26;20009;-58
2024/04/19 03:54:15;;;;;;;8.13;4.30;;;;;;;3.74;100.00;97278.75;5331139;26;20020;-58
2024/04/19 03:56:42;;;;;;;13.48;4.70;;;;;;;3.82;100.00;97285.72;5333731;26;20005;-58
2024/04/19 03:59:09;;;;;;;8.15;4.18;;;;;;;3.77;100.00;97275.66;5342825;26;20511;-59
2024/04/19 04:01:36;;;;;;;8.75;4.38;;;;;;;3.77;100.00;97284.50;5336810;26;21591;-58
2024/04/19 04:04:03;;;;;;;7.68;4.75;;;;;;;3.77;100.00;97281.81;5341352;26;20012;-59
2024/04/19 04:06:29;;;;;;;7.35;4.32;;;;;;;3.73;100.00;97283.25;5333762;26;20075;-58
2024/04/19 04:08:56;;;;;;;7.97;4.60;;;;;;;3.58;100.00;97272.00;5332631;26;20821;-59
2024/04/19 04:11:23;;;;;;;9.30;4.57;;;;;;;3.67;100.00;97262.69;5332235;26;20040;-59
2024/04/19 04:13:49;;;;;;;12.65;4.97;;;;;;;3.66;100.00;97263.72;5336422;26;20037;-59
2024/04/19 04:16:16;;;;;;;9.00;4.55;;;;;;;3.62;100.00;97263.31;5339707;26;20020;-59
2024/04/19 04:18:42;;;;;;;8.55;4.53;;;;;;;3.62;100.00;97265.19;5343746;26;20052;-59
2024/04/19 04:21:09;;;;;;;8.90;4.40;;;;;;;3.45;100.00;97260.28;5321453;26;20016;-59
2024/04/19 04:23:36;;;;;;;7.65;4.28;;;;;;;3.53;100.00;97253.06;5332330;26;20593;-58
2024/04/19 04:26:03;;;;;;;8.40;4.88;;;;;;;3.56;100.00;97261.47;5327027;26;20001;-58
2024/04/19 04:28:29;;;;;;;9.02;4.32;;;;;;;3.65;100.00;97264.78;5338306;26;20005;-60
2024/04/19 04:30:56;;;;;;;8.25;4.88;;;;;;;3.67;100.00;97270.72;5334933;26;20009;-59
2024/04/19 04:33:23;;;;;;;8.43;4.68;;;;;;;3.69;100.00;97267.84;5333772;26;20008;-58
2024/04/19 04:35:50;;;;;;;7.00;4.30;;;;;;;3.53;100.00;97259.22;5327745;26;20087;-59
2024/04/19 04:38:16;;;;;;;10.75;5.13;;;;;;;3.38;100.00;97251.41;5317587;26;20009;-58
2024/04/19 04:40:43;;;;;;;8.98;4.82;;;;;;;3.29;100.00;97244.66;5324760;26;20005;-59
2024/04/19 04:43:10;;;;;;;10.95;5.72;;;;;;;3.23;100.00;97243.63;5327857;26;20868;-58
2024/04/19 04:45:36;;;;;;;11.20;5.43;;;;;;;3.21;100.00;97229.66;5322153;26;20044;-57
2024/04/19 04:48:03;;;;;;;9.52;6.18;;;;;;;3.18;100.00;97232.72;5340773;26;20005;-58
2024/04/19 04:50:30;;;;;;;12.25;5.72;;;;;;;3.19;100.00;97235.19;5333709;26;20004;-59
2024/04/19 04:53:01;;;;;;;10.77;5.03;;;;;;;3.22;100.00;97234.78;5344617;26;20367;-58
2024/04/19 04:55:32;;;;;;;8.73;4.90;;;;;;;3.31;100.00;97239.94;5336380;26;20019;-59
2024/04/19 04:57:59;;;;;;;9.95;4.68;;;;;;;3.34;100.00;97234.97;5334601;26;19997;-58
2024/04/19 05:00:29;;;;;;;11.07;5.38;;;;;;;3.50;100.00;97238.22;5328056;26;20020;-57
2024/04/19 05:02:57;;;;;;;10.77;5.00;;;;;;;3.59;100.00;97242.34;5335230;26;20019;-55
2024/04/19 05:05:24;;;;;;;9.55;5.10;;;;;;;3.49;100.00;97242.75;5328868;26;20005;-59
2024/04/19 05:07:51;;;;;;;9.70;4.63;;;;;;;3.40;100.00;97235.16;5326828;26;20001;-58
2024/04/19 05:10:18;;;;;;;8.70;4.35;;;;;;;3.52;100.00;97241.53;5331408;26;20008;-58
2024/04/19 05:12:44;;;;;;;9.23;4.30;;;;;;;3.66;100.00;97249.50;5323792;26;20001;-58
2024/04/19 05:15:11;;;;;;;10.10;5.25;;;;;;;3.69;100.00;97249.91;5325317;26;20531;-59
2024/04/19 05:17:38;;;;;;;6.82;4.03;;;;;;;3.73;100.00;97245.78;5323347;26;20012;-58
2024/04/19 05:20:05;;;;;;;7.60;4.07;;;;;;;3.87;100.00;97248.44;5331773;26;20027;-57
2024/04/19 05:22:38;;;;;;;7.95;3.80;;;;;;;3.96;100.00;97243.63;5338702;26;20056;-58
2024/04/19 05:25:09;;;;;;;5.13;3.15;;;;;;;3.99;100.00;97241.38;5341501;26;20804;-59
2024/04/19 05:27:35;;;;;;;7.03;3.40;;;;;;;4.18;100.00;97238.81;5325639;26;19997;-58
2024/04/19 05:30:02;;;;;;;6.35;2.67;;;;;;;4.26;100.00;97251.13;5327245;26;20902;-59
2024/04/19 05:32:29;;;;;;;4.88;2.67;;;;;;;4.36;100.00;97240.78;5323634;26;20019;-57
2024/04/19 05:34:55;;;;;;;6.53;2.88;;;;;;;4.35;100.00;97243.66;5323473;26;20538;-62
2024/04/19 05:37:22;;;;;;;7.20;3.03;;;;;;;4.35;100.00;97239.13;5333247;26;20007;-58
2024/04/19 05:39:49;;;;;;;4.60;2.45;;;;;;;4.20;100.00;97234.03;5321629;26;20096;-58
2024/04/19 05:42:16;;;;;;;10.27;2.80;;;;;;;4.27;100.00;97240.19;5333137;26;20476;-58
2024/04/19 05:44:42;;;;;;;6.47;3.13;;;;;;;4.27;100.00;97239.38;5319844;26;20464;-60
2024/04/19 05:47:09;;;;;;;6.38;3.17;;;;;;;4.18;100.00;97238.81;5326313;26;20000;-59
2024/04/19 05:49:36;;;;;;;8.27;3.25;;;;;;;4.05;100.00;97242.34;5319930;26;20008;-59
2024/04/19 05:52:03;;;;;;;6.57;3.10;;;;;;;3.99;100.00;97235.19;5334067;26;20461;-57
2024/04/19 05:54:30;;;;;;;6.75;3.00;;;;;;;4.02;100.00;97235.56;5331655;26;20087;-58
2024/04/19 05:56:58;;;;;;;7.15;3.58;;;;;;;3.97;100.00;97232.72;5324795;26;20001;-57
2024/04/19 05:59:25;;;;;;;8.90;3.35;;;;;;;3.96;100.00;97228.41;5334058;26;20339;-59
2024/04/19 06:01:51;;;;;;;6.75;3.47;;;;;;;3.89;100.00;97227.59;5318202;26;20002;-59
2024/04/19 06:04:33;;;;;;;5.72;3.33;;;;;;;3.98;100.00;97217.47;5329086;26;20000;-57
2024/04/19 06:07:00;;;;;;;9.18;3.97;;;;;;;3.91;100.00;97212.16;5337369;26;20086;-58
2024/04/19 06:09:26;;;;;;;5.15;3.10;;;;;;;4.05;100.00;97218.25;5325576;26;20045;-58
2024/04/19 06:11:53;;;;;;;6.95;3.45;;;;;;;4.08;100.00;97211.63;5330277;26;20016;-61
2024/04/19 06:14:20;;;;;;;6.30;3.10;;;;;;;4.24;100.00;97199.63;5322218;26;20766;-59
2024/04/19 06:16:46;;;;;;;5.55;3.33;;;;;;;4.33;100.00;97202.84;5335566;26;20038;-57
2024/04/19 06:19:13;;;;;;;6.60;3.60;;;;;;;4.38;100.00;97200.31;5336881;26;20009;-61
2024/04/19 06:21:40;;;;;;;7.47;3.90;;;;;;;4.08;100.00;97199.06;5325738;26;20013;-59
2024/04/19 06:24:07;;;;;;;7.70;4.03;;;;;;;4.19;100.00;97200.25;5324528;26;20089;-59
2024/04/19 06:26:33;;;;;;;6.15;3.67;;;;;;;4.19;100.00;97194.88;5338131;26;20009;-60
2024/04/19 06:29:00;;;;;;;7.40;4.10;;;;;;;4.12;100.00;97192.25;5334627;26;20071;-60
2024/04/19 06:31:26;;;;;;;6.20;3.28;;;;;;;4.36;100.00;97178.28;5343477;26;20099;-59
2024/04/19 06:33:53;;;;;;;7.63;3.63;;;;;;;4.19;100.00;97186.00;5322188;26;20009;-59
2024/04/19 06:36:20;;;;;;;6.50;3.65;;;;;;;4.08;100.00;97187.50;5334557;26;20004;-59
2024/04/19 06:38:48;;;;;;;8.80;4.82;;;;;;;4.06;100.00;97181.56;5329804;26;20005;-57
2024/04/19 06:41:15;;;;;;;7.28;4.25;;;;;;;4.00;100.00;97178.72;5328914;26;20527;-60
2024/04/19 06:43:41;;;;;;;8.07;4.57;;;;;;;3.94;100.00;97168.84;5341610;26;20005;-60
2024/04/19 06:46:08;;;;;;;7.85;4.20;;;;;;;3.99;100.00;97166.38;5339384;26;20079;-60
2024/04/19 06:48:35;;;;;;;6.15;3.83;;;;;;;3.91;100.00;97163.94;5329022;26;20009;-60
2024/04/19 06:51:02;;;;;;;7.85;4.68;;;;;;;4.16;100.00;97155.94;5333246;26;20075;-61
2024/04/19 06:53:29;;;;;;;10.90;4.85;;;;;;;4.10;100.00;97164.84;5334542;26;20000;-60
2024/04/19 06:55:55;;;;;;;7.45;4.25;;;;;;;4.26;100.00;97155.47;5331884;26;20042;-60
2024/04/19 06:58:22;;;;;;;8.70;5.22;;;;;;;4.44;100.00;97151.22;5335193;26;19997;-60
2024/04/19 07:00:50;;;;;;;8.77;4.45;;;;;;;4.34;100.00;97145.50;5329949;26;20016;-60
2024/04/19 07:03:38;;;;;;;8.02;5.13;;;;;;;4.42;100.00;97145.25;5328223;26;20023;-60
2024/04/19 07:06:09;;;;;;;7.57;4.57;;;;;;;4.28;100.00;97145.34;5333464;26;20004;-60
2024/04/19 07:08:40;;;;;;;12.35;5.28;;;;;;;4.38;100.00;97142.19;5326401;26;19997;-59
2024/04/19 07:11:07;;;;;;;10.73;5.32;;;;;;;4.50;100.00;97133.44;5321766;26;20013;-58
2024/04/19 07:13:34;;;;;;;10.02;4.78;;;;;;;4.51;100.00;97127.88;5340413;26;20015;-59
2024/04/19 07:16:00;;;;;;;8.40;4.88;;;;;;;4.25;100.00;97128.88;5334410;26;20004;-58
2024/04/19 07:18:27;;;;;;;6.82;4.28;;;;;;;4.08;100.00;97125.88;5330010;26;20023;-59
2024/04/19 07:20:54;;;;;;;9.32;4.15;;;;;;;4.24;100.00;97129.94;5337799;26;20004;-58
2024/04/19 07:23:21;;;;;;;8.68;4.15;;;;;;;4.41;100.00;97127.53;5330594;26;20012;-59
2024/04/19 07:25:48;;;;;;;8.90;4.43;;;;;;;4.27;100.00;97118.75;5341931;26;20013;-59
2024/04/19 07:28:16;;;;;;;8.70;4.80;;;;;;;4.11;100.00;97120.94;5334993;26;20001;-58
2024/04/19 07:30:43;;;;;;;8.00;4.75;;;;;;;4.26;100.00;97117.13;5335636;26;20562;-59
2024/04/19 07:33:10;;;;;;;7.40;4.57;;;;;;;3.92;100.00;97116.50;5333253;26;20013;-59
2024/04/19 07:35:37;;;;;;;8.93;4.85;;;;;;;4.03;100.00;97111.28;5322956;26;20005;-60
2024/04/19 07:38:04;;;;;;;9.15;4.82;;;;;;;4.02;100.00;97111.53;5332913;26;20008;-59
2024/04/19 07:40:34;;;;;;;6.95;4.15;;;;;;;4.19;100.00;97102.94;5345563;26;20019;-60
2024/04/19 07:43:00;;;;;;;7.45;4.70;;;;;;;4.21;100.00;97101.72;5343631;26;20016;-59
2024/04/19 07:45:27;;;;;;;8.27;4.45;;;;;;;4.12;100.00;97101.13;5342397;26;20076;-58
2024/04/19 07:47:54;;;;;;;7.90;4.35;;;;;;;3.99;100.00;97099.38;5333955;26;20684;-59
2024/04/19 07:50:21;;;;;;;7.72;4.10;;;;;;;4.16;100.00;97094.31;5341922;26;20019;-59
2024/04/19 07:52:48;;;;;;;7.13;3.92;;;;;;;3.97;100.00;97098.75;5333285;26;20017;-59
2024/04/19 07:55:15;;;;;;;5.85;3.80;;;;;;;3.86;100.00;97102.94;5342854;26;20055;-60
2024/04/19 07:57:45;;;;;;;5.25;3.03;;;;;;;3.90;100.00;97095.28;5328823;26;20012;-59
2024/04/19 08:00:16;;;;;;;5.43;3.35;;;;;;;4.08;100.00;97096.41;5328557;26;20530;-59
2024/04/19 08:02:44;;;;;;;5.60;3.53;;;;;;;4.21;100.00;97095.50;5333116;26;20029;-60
2024/04/19 08:05:12;;;;;;;5.68;3.72;;;;;;;4.26;100.00;97087.63;5340043;26;20238;-60
2024/04/19 08:07:39;;;;;;;5.43;2.90;;;;;;;4.14;100.00;97082.16;5330120;26;20017;-60
2024/04/19 08:10:07;;;;;;;8.63;4.40;;;;;;;4.12;100.00;97073.50;5332945;26;20412;-59
2024/04/19 08:12:33;;;;;;;5.78;3.33;;;;;;;3.94;100.00;97077.75;5342533;26;20009;-59
2024/04/19 08:15:00;;;;;;;5.70;3.30;;;;;;;3.99;100.00;97075.28;5329183;26;20754;-60
2024/04/19 08:17:26;;;;;;;5.20;3.10;;;;;;;4.16;100.00;97080.06;5330368;26;20004;-60
2024/04/19 08:19:53;;;;;;;5.22;3.38;;;;;;;4.09;100.00;97080.13;5330345;26;20016;-59
2024/04/19 08:22:20;;;;;;;5.07;3.00;;;;;;;3.91;100.00;97072.84;5333164;26;20015;-60
2024/04/19 08:24:47;;;;;;;4.45;2.90;;;;;;;3.92;100.00;97070.97;5329635;26;20024;-60
2024/04/19 08:27:14;;;;;;;6.88;3.13;;;;;;;3.89;100.00;97059.66;5320997;26;20001;-57
2024/04/19 08:29:40;;;;;;;4.85;2.65;;;;;;;3.90;100.00;97063.16;5339467;26;20051;-60
2024/04/19 08:32:09;;;;;;;4.95;2.95;;;;;;;3.87;100.00;97051.03;5339083;26;20154;-62
2024/04/19 08:34:36;;;;;;;5.15;2.97;;;;;;;3.94;100.00;97044.81;5327300;26;20019;-62
2024/04/19 08:37:02;;;;;;;4.28;2.42;;;;;;;3.90;100.00;97041.72;5338654;26;20433;-62
2024/04/19 08:39:29;;;;;;;4.18;2.42;;;;;;;3.89;100.00;97038.25;5337186;26;20078;-61
2024/04/19 08:42:01;;;;;;;3.33;1.90;;;;;;;3.81;100.00;97030.47;5333052;26;20571;-60
2024/04/19 08:44:28;;;;;;;4.85;2.08;;;;;;;3.58;100.00;97023.00;5330361;26;20009;-60
2024/04/19 08:46:56;;;;;;;4.50;2.40;;;;;;;3.42;100.00;97022.47;5331089;26;20063;-58
2024/04/19 08:49:26;;;;;;;3.85;2.42;;;;;;;3.33;100.00;97015.72;5327299;26;20009;-59
2024/04/19 08:51:54;;;;;;;4.03;1.92;;;;;;;3.33;100.00;97015.72;5338545;26;20381;-58
2024/04/19 08:54:42;;;;;;;3.78;2.33;;;;;;;3.22;100.00;97009.19;5322483;26;20123;-58
2024/04/19 08:57:10;;;;;;;4.07;2.10;;;;;;;3.18;100.00;96994.59;5339977;26;20004;-59
2024/04/19 08:59:37;;;;;;;5.00;2.78;;;;;;;3.19;100.00;96991.72;5330307;26;20020;-60
2024/04/19 09:02:04;;;;;;;4.32;1.90;;;;;;;3.29;100.00;96993.09;5327587;26;20460;-60
2024/04/19 09:04:31;;;;;;;3.80;2.10;;;;;;;3.06;100.00;96983.75;5331075;26;20007;-58
2024/04/19 09:06:57;;;;;;;3.40;2.13;;;;;;;3.16;100.00;96980.63;5333123;26;20017;-60
2024/04/19 09:09:24;;;;;;;4.40;2.42;;;;;;;3.18;100.00;96979.38;5334345;26;20343;-60
2024/04/19 09:11:53;;;;;;;3.10;1.77;;;;;;;3.11;100.00;96975.91;5322560;26;20012;-60
2024/04/19 09:14:19;;;;;;;4.03;2.33;;;;;;;3.11;100.00;96957.19;5327916;26;20015;-60
2024/04/19 09:16:47;;;;;;;5.97;2.30;;;;;;;3.18;100.00;96957.16;5335510;26;20013;-60
2024/04/19 09:19:15;;;;;;;4.55;2.20;;;;;;;3.15;100.00;96963.75;5320565;26;20052;-60
2024/04/19 09:21:44;;;;;;;3.95;2.05;;;;;;;3.16;100.00;96956.56;5323346;26;20019;-60
2024/04/19 09:24:11;;;;;;;4.32;2.28;;;;;;;3.25;100.00;96949.91;5336677;26;20004;-60
2024/04/19 09:26:38;;;;;;;4.57;2.67;;;;;;;3.06;100.00;96949.78;5342711;26;20012;-58
2024/04/19 09:29:06;;;;;;;5.97;2.60;;;;;;;3.19;100.00;96938.19;5339667;26;20011;-60
2024/04/19 09:31:32;;;;;;;3.63;1.98;;;;;;;3.16;100.00;96933.28;5348713;26;19997;-59
2024/04/19 09:33:59;;;;;;;3.85;2.13;;;;;;;3.06;100.00;96936.41;5334962;26;20015;-58
2024/04/19 09:36:26;;;;;;;5.28;2.65;;;;;;;3.15;100.00;96920.94;5327378;26;20020;-59
2024/04/19 09:38:54;;;;;;;4.35;2.20;;;;;;;3.12;100.00;96927.53;5326039;26;20403;-59
2024/04/19 09:41:25;;;;;;;6.47;2.35;;;;;;;3.19;100.00;96916.81;5332409;26;20005;-58
2024/04/19 09:43:58;;;;;;;3.28;1.60;;;;;;;3.09;100.00;96908.41;5333363;26;20008;-60
2024/04/19 09:46:29;;;;;;;3.78;1.60;;;;;;;3.21;100.00;96893.31;5330789;26;20020;-60
2024/04/19 09:49:00;;;;;;;5.35;2.53;;;;;;;3.10;100.00;96900.16;5330259;26;20012;-60
2024/04/19 09:51:48;;;;;;;4.30;2.28;;;;;;;3.20;100.00;96886.31;5341612;26;20077;-57
2024/04/19 09:54:26;;;;;;;4.47;2.22;;;;;;;3.28;100.00;96887.09;5321775;26;20083;-60
2024/04/19 09:56:57;;;;;;;4.07;2.17;;;;;;;3.22;100.00;96875.41;5334885;26;20140;-58
2024/04/19 09:59:24;;;;;;;4.07;2.50;;;;;;;3.25;100.00;96870.44;5333273;26;20626;-58
2024/04/19 10:01:51;;;;;;;3.25;1.92;;;;;;;3.31;100.00;96860.72;5331527;26;20484;-60
2024/04/19 10:04:20;;;;;;;3.72;2.05;;;;;;;3.24;100.00;96868.81;5335768;26;20512;-60
2024/04/19 10:06:47;;;;;;;4.47;1.95;;;;;;;3.36;100.00;96863.56;5331316;26;20409;-59
2024/04/19 10:09:20;;;;;;;4.05;1.92;;;;;;;3.35;100.00;96867.28;5331287;26;20016;-59
2024/04/19 10:11:48;;;;;;;3.60;1.95;;;;;;;3.58;100.00;96857.81;5319736;26;20102;-60
2024/04/19 10:14:16;;;;;;;3.78;2.03;;;;;;;3.58;100.00;96849.78;5329486;26;20013;-58
2024/04/19 10:16:43;;;;;;;3.17;1.55;;;;;;;3.55;100.00;96855.59;5337229;26;20004;-59
2024/04/19 10:19:12;;;;;;;4.03;2.08;;;;;;;3.53;100.00;96848.81;5332760;26;20087;-59
2024/04/19 10:21:41;;;;;;;3.78;2.00;;;;;;;3.49;100.00;96841.22;5328037;26;20429;-59
2024/04/19 10:24:09;;;;;;;4.25;2.25;;;;;;;3.76;100.00;96834.81;5329470;26;20032;-60
2024/04/19 10:26:38;;;;;;;3.50;2.25;;;;;;;3.68;100.00;96835.91;5323080;26;20001;-59
2024/04/19 10:29:05;;;;;;;4.55;2.17;;;;;;;3.61;100.00;96827.94;5338876;26;20016;-59
2024/04/19 10:31:35;;;;;;;4.97;2.28;;;;;;;3.68;100.00;96825.19;5346584;26;20083;-57
2024/04/19 10:34:01;;;;;;;3.72;1.80;;;;;;;3.72;100.00;96814.88;5336410;26;20028;-59
2024/04/19 10:36:31;;;;;;;4.28;2.50;;;;;;;3.85;100.00;96813.91;5337810;26;20633;-59
2024/04/19 10:38:58;;;;;;;5.22;2.35;;;;;;;4.09;100.00;96817.53;5332413;26;20076;-59
2024/04/19 10:41:25;;;;;;;3.40;1.70;;;;;;;4.14;100.00;96815.03;5332202;26;20082;-60
2024/04/19 10:43:53;;;;;;;4.25;2.28;;;;;;;4.03;100.00;96799.69;5330763;26;20055;-60
2024/04/19 10:46:20;;;;;;;3.95;2.17;;;;;;;4.09;100.00;96800.66;5342766;26;20455;-60
2024/04/19 10:48:47;;;;;;;4.07;2.40;;;;;;;4.03;100.00;96792.47;5332769;26;20008;-59
2024/04/19 10:51:15;;;;;;;3.78;2.30;;;;;;;3.95;100.00;96791.97;5331321;26;20376;-60
2024/04/19 10:53:42;;;;;;;3.22;1.70;;;;;;;4.23;100.00;96787.91;5334104;26;20024;-60
2024/04/19 10:56:10;;;;;;;4.50;2.20;;;;;;;4.12;100.00;96776.09;5331163;26;20045;-60
2024/04/19 10:58:37;;;;;;;3.97;1.80;;;;;;;4.13;100.00;96772.38;5331684;26;20392;-59
2024/04/19 11:01:04;;;;;;;3.63;1.80;;;;;;;4.21;100.00;96774.75;5338935;26;20020;-59
2024/04/19 11:03:31;;;;;;;3.25;1.60;;;;;;;4.22;100.00;96768.34;5325752;26;20067;-60
2024/04/19 11:05:57;;;;;;;2.35;1.27;;;;;;;4.49;100.00;96769.88;5336244;26;20052;-59
2024/04/19 11:08:24;;;;;;;3.55;1.50;;;;;;;4.42;100.00;96756.53;5337317;26;20096;-60
2024/04/19 11:10:52;;;;;;;2.22;1.30;;;;;;;4.32;100.00;96751.72;5328642;26;20334;-60
2024/04/19 11:13:19;;;;;;;3.17;1.52;;;;;;;4.29;100.00;96766.41;5327693;26;20133;-60
2024/04/19 11:15:46;;;;;;;3.22;1.42;;;;;;;4.26;100.00;96753.44;5332039;26;20491;-60
2024/04/19 11:18:23;;;;;;;2.15;1.10;;;;;;;4.40;100.00;96754.09;5328715;26;20005;-60
2024/04/19 11:20:50;;;;;;;2.25;1.05;;;;;;;4.20;100.00;96737.47;5333623;26;20727;-60
2024/04/19 11:23:30;;;;;;;2.67;1.33;;;;;;;4.29;100.00;96747.66;5335907;26;20000;-59
2024/04/19 11:25:57;;;;;;;3.38;1.30;;;;;;;4.43;100.00;96739.41;5343030;26;20009;-60
2024/04/19 11:28:24;;;;;;;2.88;1.40;;;;;;;4.13;100.00;96733.00;5343857;26;20086;-59
2024/04/19 11:30:51;;;;;;;2.35;1.15;;;;;;;4.21;100.00;96736.41;5335290;26;20370;-60
2024/04/19 11:33:18;;;;;;;2.20;1.02;;;;;;;4.10;100.00;96740.69;5327317;26;20001;-60
2024/04/19 11:35:45;;;;;;;2.17;1.02;;;;;;;4.16;100.00;96721.84;5331697;26;20390;-59
2024/04/19 11:38:14;;;;;;;2.35;0.90;;;;;;;4.23;100.00;96728.94;5336351;26;20001;-60
2024/04/19 11:40:42;;;;;;;1.75;1.00;;;;;;;4.20;100.00;96716.81;5337214;26;20478;-58
2024/04/19 11:43:10;;;;;;;2.38;0.82;;;;;;;4.12;100.00;96714.47;5326133;26;20017;-59